Concordia, Kansas
Current Conditions -  °F | °C
As of 1:55 AM on Thursday 27 Nov 2014 (Local Time) from KCNK Reporting Station
Clear Clear  
Wind Chill: 13°   Ceiling: Unl
Heat Index: 20°   Visibility: 10mi
Dew Point: 15°   Wind: 5mph
Humidity: 81%   Direction: 50°NE
Pressure: 30.47"   Gusts: NA
Location:  39.57°N, 97.66°W
Report Text: KCNK 270755Z AUTO 05004KT 10SM CLR M07/M09 A3047 RMK AO2 SLP334 T10671094
Loading
Personal Weather Stations






























Interactive Weather Map New forecast layout! Learn more

10-Day Weather Forecast

Advertisements
Track Severe Weather on mobile